Time;durP1;ratioP1;P1;durP2;ratioP2;P2;SDS_P1;SDS_P2;PMS_P1;PMS_P2;Temp;Humidity;BMP_temperature;BMP_pressure;BME280_temperature;BME280_humidity;BME280_pressure;Samples;Min_cycle;Max_cycle;Signal;HPM_P1;HPM_P2
2021/04/28 00:01:27;;;;;;;6.30;2.53;;;4.90;62.50;;;;;;5056277;28;20033;-69
2021/04/28 00:03:53;;;;;;;7.33;2.40;;;4.90;62.50;;;;;;5056443;28;20066;-71
2021/04/28 00:06:19;;;;;;;7.80;2.80;;;4.90;62.60;;;;;;5074481;28;20036;-71
2021/04/28 00:08:44;;;;;;;4.87;2.40;;;4.90;62.60;;;;;;5073873;28;20119;-72
2021/04/28 00:11:11;;;;;;;7.40;2.17;;;4.80;62.60;;;;;;5056462;28;20040;-72
2021/04/28 00:13:36;;;;;;;5.23;2.13;;;4.90;62.80;;;;;;5074274;28;20105;-70
2021/04/28 00:16:03;;;;;;;6.07;2.10;;;4.90;62.80;;;;;;5073848;28;20500;-72
2021/04/28 00:18:28;;;;;;;7.43;2.37;;;4.80;62.80;;;;;;5074130;28;20500;-71
2021/04/28 00:20:54;;;;;;;7.60;2.40;;;4.80;62.80;;;;;;5055877;28;20043;-70
2021/04/28 00:23:20;;;;;;;6.80;2.30;;;4.80;63.00;;;;;;5056013;28;20043;-70
2021/04/28 00:25:46;;;;;;;5.93;2.27;;;4.80;63.10;;;;;;5074255;28;20037;-72
2021/04/28 00:28:12;;;;;;;4.90;2.00;;;4.80;63.10;;;;;;5073175;28;20462;-70
2021/04/28 00:30:38;;;;;;;8.47;2.43;;;4.80;63.00;;;;;;5074132;28;20044;-71
2021/04/28 00:33:05;;;;;;;5.00;2.33;;;4.70;63.00;;;;;;5073128;28;20036;-72
2021/04/28 00:35:31;;;;;;;6.10;2.20;;;4.70;63.10;;;;;;5039514;28;20044;-71
2021/04/28 00:37:57;;;;;;;4.83;2.13;;;4.70;63.20;;;;;;5056127;28;20518;-71
2021/04/28 00:40:36;;;;;;;7.07;2.10;;;4.70;63.20;;;;;;5073562;28;20047;-72
2021/04/28 00:43:02;;;;;;;6.83;2.27;;;4.70;63.30;;;;;;5055438;28;20051;-72
2021/04/28 00:45:29;;;;;;;5.63;2.10;;;4.70;63.30;;;;;;5055508;28;20043;-70
2021/04/28 00:47:56;;;;;;;7.27;2.10;;;4.70;63.20;;;;;;5072453;28;20089;-71
2021/04/28 00:50:30;;;;;;;5.63;2.00;;;4.70;63.20;;;;;;5055749;28;20040;-71
2021/04/28 00:52:57;;;;;;;7.47;2.27;;;4.70;63.30;;;;;;5055249;28;20047;-71
2021/04/28 00:55:22;;;;;;;6.23;2.20;;;4.60;63.30;;;;;;5073541;28;20037;-71
2021/04/28 00:57:50;;;;;;;6.97;1.90;;;4.60;63.60;;;;;;5054929;28;20070;-70
2021/04/28 01:00:17;;;;;;;5.20;2.20;;;4.60;63.70;;;;;;5073593;28;20058;-71
2021/04/28 01:02:43;;;;;;;5.30;1.80;;;4.60;63.70;;;;;;5073540;28;20369;-71
2021/04/28 01:05:10;;;;;;;4.77;1.97;;;4.60;63.70;;;;;;5072878;28;20034;-71
2021/04/28 01:07:38;;;;;;;5.40;1.70;;;4.60;63.70;;;;;;5055437;28;20039;-71
2021/04/28 01:10:10;;;;;;;5.53;2.00;;;4.50;63.70;;;;;;5055081;28;20041;-71
2021/04/28 01:12:37;;;;;;;6.30;1.80;;;4.60;64.20;;;;;;5073370;28;20066;-71
2021/04/28 01:15:05;;;;;;;7.50;2.10;;;4.50;64.80;;;;;;5073083;28;20452;-71
2021/04/28 01:17:37;;;;;;;7.17;2.23;;;4.60;64.10;;;;;;5039009;28;20037;-71
2021/04/28 01:20:09;;;;;;;4.33;2.10;;;4.60;63.90;;;;;;5055243;28;20060;-71
2021/04/28 01:22:40;;;;;;;4.50;1.73;;;4.60;63.90;;;;;;5038231;28;20047;-63
2021/04/28 01:25:08;;;;;;;7.13;1.97;;;4.60;63.70;;;;;;5038152;28;20048;-62
2021/04/28 01:27:37;;;;;;;5.50;1.87;;;4.50;63.70;;;;;;5054542;28;20041;-63
2021/04/28 01:30:05;;;;;;;5.07;1.80;;;4.50;63.80;;;;;;5055095;28;20036;-63
2021/04/28 01:32:32;;;;;;;6.20;1.97;;;4.50;64.00;;;;;;5038114;28;20032;-63
2021/04/28 01:34:59;;;;;;;5.27;1.70;;;4.50;64.20;;;;;;5054666;28;20056;-62
2021/04/28 01:37:26;;;;;;;4.50;1.83;;;4.50;64.10;;;;;;5054910;28;20055;-63
2021/04/28 01:39:52;;;;;;;5.40;2.10;;;4.50;64.20;;;;;;5037788;28;20048;-63
2021/04/28 01:42:19;;;;;;;5.50;2.00;;;4.50;64.00;;;;;;5072800;28;20033;-63
2021/04/28 01:44:47;;;;;;;5.27;1.80;;;4.50;63.90;;;;;;5054070;28;20039;-63
2021/04/28 01:47:14;;;;;;;6.20;1.77;;;4.40;63.90;;;;;;5038207;28;20037;-63
2021/04/28 01:49:41;;;;;;;4.10;1.67;;;4.40;64.00;;;;;;5072443;28;20468;-63
2021/04/28 01:52:07;;;;;;;3.63;1.70;;;4.40;64.00;;;;;;5054230;28;20041;-62
2021/04/28 01:54:33;;;;;;;3.93;1.70;;;4.40;64.10;;;;;;5054279;28;20404;-62
2021/04/28 01:57:00;;;;;;;4.03;1.70;;;4.30;64.00;;;;;;5053953;28;20037;-63
2021/04/28 01:59:31;;;;;;;5.63;1.73;;;4.30;64.20;;;;;;5072388;28;20484;-63
2021/04/28 02:02:30;;;;;;;5.03;1.90;;;4.30;64.10;;;;;;5036596;28;20040;-64
2021/04/28 02:04:56;;;;;;;4.80;1.73;;;4.30;64.10;;;;;;5037658;28;20526;-63
2021/04/28 02:07:21;;;;;;;5.23;1.97;;;4.20;64.00;;;;;;5053508;28;20036;-65
2021/04/28 02:09:49;;;;;;;6.30;2.03;;;4.20;64.10;;;;;;5072165;28;20117;-63
2021/04/28 02:12:24;;;;;;;3.93;1.70;;;4.20;64.40;;;;;;5053592;28;20098;-63
2021/04/28 02:14:53;;;;;;;5.37;1.67;;;4.10;64.30;;;;;;5053717;28;20115;-63
2021/04/28 02:17:26;;;;;;;4.67;1.77;;;4.10;64.40;;;;;;5054241;28;20028;-62
2021/04/28 02:19:57;;;;;;;5.33;2.10;;;4.10;64.60;;;;;;5053745;28;20047;-63
2021/04/28 02:22:28;;;;;;;5.40;1.83;;;4.10;64.60;;;;;;5053869;28;20115;-63
2021/04/28 02:25:02;;;;;;;5.77;1.90;;;4.00;64.50;;;;;;5053441;28;20428;-62
2021/04/28 02:27:41;;;;;;;6.77;1.93;;;4.00;64.50;;;;;;5038718;28;20047;-71
2021/04/28 02:30:12;;;;;;;5.57;2.20;;;3.90;64.50;;;;;;5053475;28;20476;-70
2021/04/28 02:32:39;;;;;;;8.97;3.10;;;3.90;64.50;;;;;;5054130;28;20045;-70
2021/04/28 02:35:41;;;;;;;;;;;3.90;64.70;;;;;;5070889;28;20135;-71
2021/04/28 02:38:50;;;;;;;5.17;2.07;;;3.90;64.70;;;;;;5042177;28;19934;-67
2021/04/28 02:41:26;;;;;;;4.07;1.90;;;3.90;64.70;;;;;;5071649;28;20036;-72
2021/04/28 02:43:54;;;;;;;4.77;2.00;;;3.80;64.70;;;;;;5070860;28;20037;-71
2021/04/28 02:46:27;;;;;;;7.00;2.37;;;3.80;64.80;;;;;;5053639;28;20412;-72
2021/04/28 02:48:57;;;;;;;6.00;2.17;;;3.80;65.00;;;;;;5052855;28;20455;-71
2021/04/28 02:51:36;;;;;;;5.00;2.07;;;3.70;64.90;;;;;;5071558;28;20037;-72
2021/04/28 02:54:11;;;;;;;3.83;1.80;;;3.70;64.90;;;;;;5052943;28;20060;-71
2021/04/28 02:56:38;;;;;;;6.03;2.20;;;3.70;65.00;;;;;;5071050;28;20032;-70
2021/04/28 02:59:06;;;;;;;6.37;2.10;;;3.60;65.00;;;;;;5036338;28;20134;-72
2021/04/28 03:01:32;;;;;;;5.47;2.37;;;3.60;65.00;;;;;;5036997;28;20036;-71
2021/04/28 03:03:59;;;;;;;4.17;2.10;;;3.50;65.20;;;;;;5072235;28;20043;-71
2021/04/28 03:06:43;;;;;;;6.20;2.07;;;3.50;65.40;;;;;;5071113;28;20054;-70
2021/04/28 03:09:12;;;;;;;4.53;2.00;;;3.40;65.70;;;;;;5036077;28;20041;-69
2021/04/28 03:11:39;;;;;;;5.90;2.43;;;3.40;65.80;;;;;;5036454;28;20036;-69
2021/04/28 03:14:13;;;;;;;4.53;1.90;;;3.30;65.80;;;;;;5052528;28;20036;-69
2021/04/28 03:16:40;;;;;;;6.60;2.03;;;3.30;66.00;;;;;;5053428;28;20078;-70
2021/04/28 03:19:08;;;;;;;5.10;2.03;;;3.30;66.10;;;;;;5053063;28;20074;-70
2021/04/28 03:21:42;;;;;;;6.03;2.10;;;3.20;66.10;;;;;;5036216;28;20056;-69
2021/04/28 03:24:09;;;;;;;6.13;2.20;;;3.20;66.20;;;;;;5053015;28;20043;-70
2021/04/28 03:26:35;;;;;;;4.87;2.23;;;3.20;66.30;;;;;;5070498;28;20033;-70
2021/04/28 03:29:02;;;;;;;6.47;2.53;;;3.10;66.40;;;;;;5096345;22;20044;-63
2021/04/28 03:31:27;;;;;;;5.27;2.23;;;3.10;66.50;;;;;;5074706;28;20044;-62
2021/04/28 03:33:54;;;;;;;5.70;2.30;;;3.00;66.40;;;;;;5073123;28;20033;-62
2021/04/28 03:36:20;;;;;;;5.27;2.30;;;3.10;66.50;;;;;;5055330;28;20060;-64
2021/04/28 03:39:06;;;;;;;5.30;2.30;;;3.00;66.50;;;;;;5070445;28;20029;-62
2021/04/28 03:41:32;;;;;;;6.10;2.60;;;3.00;66.70;;;;;;5053059;28;20093;-62
2021/04/28 03:43:58;;;;;;;7.93;2.40;;;2.90;66.70;;;;;;5070117;28;20033;-62
2021/04/28 03:46:24;;;;;;;5.83;2.20;;;2.90;66.80;;;;;;5070977;28;20032;-62
2021/04/28 03:48:52;;;;;;;4.97;2.07;;;2.90;66.90;;;;;;5052894;28;20412;-62
2021/04/28 03:51:21;;;;;;;6.33;2.40;;;2.90;66.90;;;;;;5052420;28;20440;-62
2021/04/28 03:54:25;;;;;;;5.37;2.43;;;2.90;67.00;;;;;;5069995;28;20043;-62
2021/04/28 03:56:58;;;;;;;6.80;2.57;;;2.90;67.20;;;;;;5052845;28;20040;-62
2021/04/28 03:59:24;;;;;;;6.83;2.63;;;2.80;67.30;;;;;;5052152;28;20119;-62
2021/04/28 04:01:53;;;;;;;5.30;2.30;;;2.80;67.50;;;;;;5070785;28;20487;-62
2021/04/28 04:04:20;;;;;;;6.53;2.70;;;2.80;67.50;;;;;;5052050;28;20033;-62
2021/04/28 04:07:16;;;;;;;6.17;2.20;;;2.80;67.60;;;;;;5052677;28;20120;-62
2021/04/28 04:10:00;;;;;;;5.93;2.20;;;2.80;67.70;;;;;;5070297;28;20040;-61
2021/04/28 04:12:27;;;;;;;6.43;2.30;;;2.70;67.80;;;;;;5052702;28;20067;-62
2021/04/28 04:14:56;;;;;;;6.37;2.17;;;2.70;68.10;;;;;;5069933;28;20037;-62
2021/04/28 04:17:22;;;;;;;8.70;2.37;;;2.70;68.30;;;;;;5052589;28;20056;-62
2021/04/28 04:19:57;;;;;;;6.13;2.47;;;2.70;68.40;;;;;;5052628;28;20527;-62
2021/04/28 04:22:37;;;;;;;6.47;2.08;;;2.80;68.70;;;;;;5055646;28;20127;-62
2021/04/28 04:25:20;;;;;;;7.40;2.73;;;2.80;68.80;;;;;;5058415;28;20399;-62
2021/04/28 04:27:46;;;;;;;7.60;2.83;;;2.80;68.80;;;;;;5056041;28;20504;-62
2021/04/28 04:30:32;;;;;;;6.77;2.60;;;2.80;68.90;;;;;;5032389;28;20119;-62
2021/04/28 04:33:04;;;;;;;7.03;2.73;;;2.90;69.00;;;;;;5073847;28;20036;-62
2021/04/28 04:36:02;;;;;;;8.23;2.30;;;2.90;69.20;;;;;;5018293;28;20040;-62
2021/04/28 04:38:28;;;;;;;6.30;2.50;;;2.90;69.40;;;;;;5073987;28;20041;-62
2021/04/28 04:41:16;;;;;;;6.87;2.80;;;3.00;69.60;;;;;;5073726;28;20041;-62
2021/04/28 04:43:51;;;;;;;7.47;2.50;;;3.00;69.60;;;;;;5039483;28;20039;-62
2021/04/28 04:46:38;;;;;;;6.40;2.60;;;3.10;69.70;;;;;;5071807;28;20028;-62
2021/04/28 04:49:04;;;;;;;5.60;2.53;;;3.20;69.80;;;;;;5073075;28;20045;-62
2021/04/28 04:51:30;;;;;;;7.30;2.40;;;3.30;70.00;;;;;;5071974;28;20036;-62
2021/04/28 04:53:56;;;;;;;6.60;2.47;;;3.50;70.10;;;;;;5073216;28;20044;-62
2021/04/28 04:56:21;;;;;;;7.70;2.53;;;3.60;70.50;;;;;;5072530;28;20128;-62
2021/04/28 04:58:47;;;;;;;10.50;2.33;;;3.80;70.80;;;;;;5073057;28;20457;-62
2021/04/28 05:01:13;;;;;;;6.47;2.40;;;4.00;71.10;;;;;;5073477;28;20557;-63
2021/04/28 05:03:38;;;;;;;10.00;2.30;;;4.30;71.80;;;;;;5072801;28;20545;-63
2021/04/28 05:06:04;;;;;;;5.43;2.40;;;4.70;72.30;;;;;;5073427;28;20048;-63
2021/04/28 05:08:30;;;;;;;6.73;2.50;;;5.00;72.30;;;;;;5073309;28;20115;-63
2021/04/28 05:10:55;;;;;;;5.07;2.07;;;5.30;72.80;;;;;;5054995;28;20496;-63
2021/04/28 05:13:21;;;;;;;5.47;2.30;;;5.70;72.20;;;;;;5072766;28;20029;-62
2021/04/28 05:15:47;;;;;;;5.13;2.30;;;6.00;71.80;;;;;;5075526;28;20554;-62
2021/04/28 05:18:13;;;;;;;5.77;2.40;;;6.30;70.80;;;;;;5089374;28;20044;-63
2021/04/28 05:20:38;;;;;;;5.80;2.30;;;6.60;70.30;;;;;;5058185;28;20514;-62
2021/04/28 05:23:04;;;;;;;5.33;2.23;;;6.90;70.00;;;;;;5073807;28;20040;-62
2021/04/28 05:25:53;;;;;;;6.40;2.50;;;7.20;69.60;;;;;;5044133;28;20116;-62
2021/04/28 05:28:18;;;;;;;4.90;2.33;;;7.40;68.70;;;;;;5072168;28;20124;-63
2021/04/28 05:30:44;;;;;;;7.10;2.50;;;7.70;69.40;;;;;;5055243;28;20040;-64
2021/04/28 05:33:10;;;;;;;6.73;2.30;;;8.30;71.60;;;;;;5072113;28;20032;-64
2021/04/28 05:35:35;;;;;;;5.77;2.30;;;9.20;71.90;;;;;;5072342;28;20036;-63
2021/04/28 05:38:01;;;;;;;5.50;2.20;;;10.10;71.40;;;;;;5072636;28;20044;-64
2021/04/28 05:40:28;;;;;;;9.10;2.88;;;10.90;69.70;;;;;;5072397;28;20060;-64
2021/04/28 05:42:54;;;;;;;7.50;2.75;;;11.50;66.80;;;;;;5071893;28;20025;-66
2021/04/28 05:45:19;;;;;;;8.15;2.75;;;12.00;65.40;;;;;;5054650;28;20404;-65
2021/04/28 05:47:45;;;;;;;6.90;2.90;;;12.70;65.00;;;;;;5053530;28;20048;-64
2021/04/28 05:50:15;;;;;;;10.20;3.30;;;13.40;63.70;;;;;;5072316;28;20060;-61
2021/04/28 05:52:40;;;;;;;7.65;3.22;;;14.20;60.20;;;;;;5071952;28;20055;-64
2021/04/28 05:55:07;;;;;;;9.30;4.40;;;14.70;58.00;;;;;;5071974;28;20528;-63
2021/04/28 05:57:34;;;;;;;6.20;2.75;;;15.30;57.40;;;;;;5071893;28;20033;-63
2021/04/28 06:00:03;;;;;;;6.90;3.20;;;15.90;55.90;;;;;;5053487;28;20036;-63
2021/04/28 06:02:38;;;;;;;6.93;3.30;;;15.40;50.30;;;;;;5071131;28;20040;-63
2021/04/28 06:05:05;;;;;;;7.70;3.28;;;14.50;47.50;;;;;;5071182;28;20044;-63
2021/04/28 06:07:31;;;;;;;7.18;3.03;;;14.50;50.50;;;;;;5071914;28;20040;-62
2021/04/28 06:09:57;;;;;;;8.70;3.25;;;15.40;52.00;;;;;;5071079;28;20040;-63
2021/04/28 06:12:23;;;;;;;8.32;3.20;;;15.70;48.30;;;;;;5071970;28;20029;-62
2021/04/28 06:14:48;;;;;;;7.72;3.08;;;15.50;46.10;;;;;;5053474;28;20407;-62
2021/04/28 06:17:15;;;;;;;7.55;3.20;;;15.60;46.90;;;;;;5053449;28;20086;-62
2021/04/28 06:19:41;;;;;;;6.00;3.40;;;16.40;47.40;;;;;;5071764;28;20107;-63
2021/04/28 06:22:07;;;;;;;7.05;3.50;;;17.20;44.60;;;;;;5052784;28;20060;-63
2021/04/28 06:24:33;;;;;;;6.60;3.50;;;16.90;40.40;;;;;;5053519;28;20064;-62
2021/04/28 06:26:59;;;;;;;7.05;3.50;;;16.30;39.10;;;;;;5086717;28;20040;-62
2021/04/28 06:29:25;;;;;;;7.70;3.58;;;16.20;40.00;;;;;;5072916;28;20047;-62
2021/04/28 06:31:50;;;;;;;6.18;3.25;;;16.80;40.20;;;;;;5091713;28;20027;-62
2021/04/28 06:34:16;;;;;;;6.82;3.30;;;17.90;39.50;;;;;;5048833;28;20485;-63
2021/04/28 06:36:42;;;;;;;9.02;3.70;;;18.60;37.40;;;;;;5054322;28;20056;-63
2021/04/28 06:39:10;;;;;;;7.65;3.40;;;18.80;35.90;;;;;;5076680;28;20060;-63
2021/04/28 06:41:36;;;;;;;7.10;3.42;;;18.60;34.70;;;;;;5042285;28;20476;-62
2021/04/28 06:44:03;;;;;;;6.93;3.70;;;18.60;34.20;;;;;;5078163;28;20036;-63
2021/04/28 06:46:29;;;;;;;7.95;3.50;;;19.20;35.30;;;;;;5065585;28;20054;-63
2021/04/28 06:48:55;;;;;;;8.05;3.53;;;19.70;34.40;;;;;;5072610;28;20405;-63
2021/04/28 06:51:21;;;;;;;7.47;3.45;;;20.30;34.50;;;;;;5056459;28;20032;-63
2021/04/28 06:53:47;;;;;;;8.63;3.47;;;21.30;33.30;;;;;;5090547;28;20032;-63
2021/04/28 06:56:13;;;;;;;6.35;3.20;;;21.70;31.50;;;;;;5072682;28;20036;-63
2021/04/28 06:58:39;;;;;;;8.15;3.50;;;22.40;31.20;;;;;;5072458;28;20203;-63
2021/04/28 07:01:05;;;;;;;6.28;3.13;;;23.00;30.00;;;;;;5071040;28;20073;-63
2021/04/28 07:03:32;;;;;;;6.40;3.50;;;23.60;29.20;;;;;;5090303;28;20484;-63
2021/04/28 07:05:58;;;;;;;8.07;3.20;;;23.80;27.70;;;;;;5072825;28;20063;-63
2021/04/28 07:08:23;;;;;;;7.90;3.38;;;23.80;26.90;;;;;;5070212;28;20454;-64
2021/04/28 07:10:50;;;;;;;5.43;3.22;;;24.20;27.10;;;;;;5084871;28;20050;-63
2021/04/28 07:13:16;;;;;;;6.18;3.25;;;24.80;26.90;;;;;;5078441;28;20041;-63
2021/04/28 07:15:41;;;;;;;6.28;3.22;;;25.10;25.90;;;;;;5070660;28;20059;-64
2021/04/28 07:18:07;;;;;;;6.88;3.00;;;25.10;24.90;;;;;;5069273;28;20044;-64
2021/04/28 07:20:33;;;;;;;5.90;3.00;;;25.10;25.00;;;;;;5035770;28;20040;-63
2021/04/28 07:22:59;;;;;;;8.77;3.38;;;25.30;24.70;;;;;;5052483;28;20044;-63
2021/04/28 07:25:25;;;;;;;5.75;2.88;;;25.60;25.20;;;;;;5051661;28;20090;-64
2021/04/28 07:27:51;;;;;;;6.25;2.83;;;26.40;25.00;;;;;;5068227;28;20135;-64
2021/04/28 07:30:18;;;;;;;6.47;3.10;;;26.80;23.90;;;;;;5069314;28;20117;-64
2021/04/28 07:32:44;;;;;;;5.88;2.97;;;27.10;23.90;;;;;;5069721;28;20051;-64
2021/04/28 07:35:12;;;;;;;6.15;3.00;;;27.80;24.30;;;;;;5070075;28;20032;-64
2021/04/28 07:37:39;;;;;;;5.43;3.00;;;28.40;24.00;;;;;;5052418;28;20029;-64
2021/04/28 07:40:07;;;;;;;8.18;3.00;;;29.20;23.70;;;;;;5070122;28;20029;-64
2021/04/28 07:42:33;;;;;;;6.18;3.10;;;29.90;23.30;;;;;;5052876;28;20063;-70
2021/04/28 07:44:59;;;;;;;6.85;3.45;;;30.20;22.50;;;;;;5069939;28;20036;-69
2021/04/28 07:47:25;;;;;;;6.32;3.05;;;30.50;22.10;;;;;;5052415;28;20044;-70
2021/04/28 07:49:51;;;;;;;5.90;3.20;;;30.60;21.80;;;;;;5070481;28;20116;-69
2021/04/28 07:52:17;;;;;;;7.55;3.25;;;31.20;21.90;;;;;;5052189;28;20136;-71
2021/04/28 07:54:43;;;;;;;7.10;3.25;;;31.40;21.40;;;;;;5052160;28;20078;-68
2021/04/28 07:57:09;;;;;;;8.20;3.28;;;31.60;21.10;;;;;;5064549;28;20438;-63
2021/04/28 07:59:35;;;;;;;6.72;3.20;;;32.20;21.20;;;;;;5093395;28;20032;-63
2021/04/28 08:02:01;;;;;;;7.85;3.00;;;32.50;20.10;;;;;;5092917;28;20381;-63
2021/04/28 08:04:27;;;;;;;7.38;3.13;;;32.40;20.00;;;;;;5093654;28;20127;-62
2021/04/28 08:06:53;;;;;;;6.00;3.20;;;32.80;20.10;;;;;;5094339;28;20110;-62
2021/04/28 08:09:19;;;;;;;5.43;3.05;;;33.10;19.70;;;;;;5076311;28;20064;-62
2021/04/28 08:11:46;;;;;;;6.47;2.95;;;33.10;19.10;;;;;;5093652;28;20502;-62
2021/04/28 08:14:11;;;;;;;5.32;3.20;;;33.00;19.30;;;;;;5093937;28;20119;-61
2021/04/28 08:16:38;;;;;;;6.68;3.45;;;32.90;18.70;;;;;;5075424;28;20043;-62
2021/04/28 08:19:04;;;;;;;6.13;3.50;;;32.60;18.70;;;;;;5094053;28;20032;-62
2021/04/28 08:21:30;;;;;;;5.60;3.20;;;32.80;18.70;;;;;;5074507;28;20032;-62
2021/04/28 08:23:56;;;;;;;5.60;3.15;;;33.00;18.60;;;;;;5069652;28;20071;-62
2021/04/28 08:26:22;;;;;;;5.55;3.30;;;32.80;18.00;;;;;;5083056;28;20032;-61
2021/04/28 08:28:49;;;;;;;7.13;3.47;;;32.50;17.90;;;;;;5063372;28;20036;-61
2021/04/28 08:31:18;;;;;;;6.93;3.58;;;32.40;18.10;;;;;;5054674;28;20087;-62
2021/04/28 08:33:44;;;;;;;6.28;3.40;;;32.50;18.00;;;;;;5060871;28;20033;-62
2021/04/28 08:36:11;;;;;;;7.90;3.60;;;33.20;18.60;;;;;;5062608;28;20123;-61
2021/04/28 08:38:38;;;;;;;5.65;3.03;;;34.30;18.40;;;;;;5046198;28;20827;-61
2021/04/28 08:41:06;;;;;;;6.43;3.33;;;35.00;17.90;;;;;;5061968;28;20069;-62
2021/04/28 08:43:32;;;;;;;6.70;3.40;;;34.40;16.90;;;;;;5062192;28;20036;-63
2021/04/28 08:46:01;;;;;;;6.65;3.30;;;33.60;17.10;;;;;;5063948;28;20492;-63
2021/04/28 08:48:29;;;;;;;6.63;3.30;;;33.10;16.80;;;;;;5062016;28;20386;-63
2021/04/28 08:50:56;;;;;;;5.63;3.13;;;33.40;17.50;;;;;;5061600;28;20044;-63
2021/04/28 08:53:26;;;;;;;6.82;3.40;;;33.90;17.20;;;;;;5060736;28;20155;-62
2021/04/28 08:55:52;;;;;;;6.57;3.63;;;34.30;17.00;;;;;;5064165;28;20473;-63
2021/04/28 08:58:20;;;;;;;7.28;3.30;;;34.50;16.90;;;;;;5073242;28;20043;-71
2021/04/28 09:00:46;;;;;;;5.65;2.90;;;34.60;16.60;;;;;;5072834;28;20404;-72
2021/04/28 09:03:16;;;;;;;5.88;3.15;;;34.30;16.70;;;;;;5072704;28;20079;-72
2021/04/28 09:05:42;;;;;;;;;;;34.30;16.40;;;;;;5081159;28;20039;-71
2021/04/28 09:08:09;;;;;;;6.03;3.28;;;33.90;16.40;;;;;;5082758;28;20004;-72
2021/04/28 09:10:35;;;;;;;5.65;3.10;;;33.50;16.30;;;;;;5082439;28;20049;-72
2021/04/28 09:13:07;;;;;;;5.63;3.20;;;33.50;16.80;;;;;;5076425;28;20035;-73
2021/04/28 09:15:43;;;;;;;6.70;3.13;;;34.80;17.50;;;;;;5061607;28;20106;-72
2021/04/28 09:18:15;;;;;;;5.72;3.10;;;36.40;17.20;;;;;;5063150;28;20392;-70
2021/04/28 09:21:00;;;;;;;6.82;2.92;;;36.70;16.70;;;;;;5073565;28;20036;-71
2021/04/28 09:23:45;;;;;;;5.80;2.83;;;36.00;16.10;;;;;;5063156;28;20039;-71
2021/04/28 09:26:37;;;;;;;6.15;3.00;;;36.10;16.30;;;;;;5061333;28;20120;-72
2021/04/28 09:29:30;;;;;;;7.18;2.90;;;35.70;15.90;;;;;;5097934;22;20408;-68
2021/04/28 09:32:07;;;;;;;6.18;2.83;;;35.40;15.80;;;;;;5080862;28;20062;-68
2021/04/28 09:34:41;;;;;;;6.65;2.85;;;35.50;15.80;;;;;;5081603;28;20399;-64
2021/04/28 09:37:14;;;;;;;8.45;2.95;;;35.70;16.20;;;;;;5080165;28;20052;-64
2021/04/28 09:39:46;;;;;;;5.32;2.85;;;36.90;16.60;;;;;;5080769;28;20077;-65
2021/04/28 09:42:16;;;;;;;6.13;2.90;;;37.90;16.30;;;;;;5080883;28;20592;-64
2021/04/28 09:44:49;;;;;;;7.07;3.13;;;38.20;15.80;;;;;;5082430;28;20053;-64
2021/04/28 09:47:20;;;;;;;7.40;3.00;;;38.20;15.50;;;;;;5064694;28;20040;-64
2021/04/28 09:50:04;;;;;;;4.80;2.70;;;37.90;15.60;;;;;;5079562;28;20033;-68
2021/04/28 09:52:30;;;;;;;5.03;2.80;;;38.20;15.60;;;;;;5079663;28;20107;-69
2021/04/28 09:55:01;;;;;;;6.93;3.00;;;37.90;15.20;;;;;;5082657;28;20036;-69
2021/04/28 09:57:39;;;;;;;7.07;3.00;;;37.70;15.60;;;;;;5063506;28;20119;-67
2021/04/28 10:00:21;;;;;;;7.72;3.75;;;38.20;15.90;;;;;;5079653;28;20040;-70
2021/04/28 10:02:57;;;;;;;8.02;3.85;;;39.10;16.00;;;;;;5061900;28;20095;-64
2021/04/28 10:05:29;;;;;;;11.77;5.15;;;39.70;15.20;;;;;;5079915;28;20054;-68
2021/04/28 10:08:13;;;;;;;6.93;3.10;;;39.00;14.90;;;;;;5081912;28;20044;-64
2021/04/28 10:10:39;;;;;;;6.88;3.08;;;39.10;15.40;;;;;;5078366;28;20037;-63
2021/04/28 10:13:05;;;;;;;6.45;3.22;;;39.00;14.80;;;;;;5080683;28;20042;-62
2021/04/28 10:15:32;;;;;;;7.20;3.13;;;38.40;14.70;;;;;;5045390;28;20032;-62
2021/04/28 10:18:05;;;;;;;7.65;3.45;;;38.00;14.80;;;;;;5046778;28;20123;-62
2021/04/28 10:20:32;;;;;;;5.20;3.08;;;37.50;15.00;;;;;;5079556;28;20553;-63
2021/04/28 10:23:07;;;;;;;5.57;3.10;;;37.40;15.20;;;;;;5081472;28;20090;-63
2021/04/28 10:25:34;;;;;;;5.75;2.95;;;37.90;15.20;;;;;;5064243;28;20445;-62
2021/04/28 10:28:01;;;;;;;7.38;3.58;;;38.10;15.10;;;;;;5079035;28;20040;-63
2021/04/28 10:30:27;;;;;;;6.10;3.25;;;38.40;15.40;;;;;;5077608;28;20028;-68
2021/04/28 10:32:56;;;;;;;7.38;3.95;;;39.10;15.20;;;;;;5062335;28;20028;-68
2021/04/28 10:35:26;;;;;;;8.45;3.95;;;39.60;15.40;;;;;;5063758;28;20059;-63
2021/04/28 10:37:52;;;;;;;6.05;3.38;;;40.10;15.30;;;;;;5063558;28;20458;-63
2021/04/28 10:40:22;;;;;;;6.65;3.80;;;40.10;15.30;;;;;;5079147;28;20037;-63
2021/04/28 10:42:49;;;;;;;9.02;4.03;;;39.80;15.10;;;;;;5080388;28;20119;-63
2021/04/28 10:45:23;;;;;;;6.18;3.50;;;39.50;14.90;;;;;;5063221;28;20047;-63
2021/04/28 10:47:51;;;;;;;5.80;3.60;;;39.20;15.20;;;;;;5062815;28;20071;-63
2021/04/28 10:50:23;;;;;;;6.38;3.67;;;39.50;15.30;;;;;;5061729;28;20043;-68
2021/04/28 10:53:19;;;;;;;5.82;3.53;;;39.50;15.00;;;;;;5046052;28;20500;-67
2021/04/28 10:55:50;;;;;;;6.38;3.78;;;39.00;15.30;;;;;;5071296;28;20525;-63
2021/04/28 10:58:34;;;;;;;6.90;3.75;;;38.90;15.50;;;;;;5081546;28;20441;-63
2021/04/28 11:03:52;;;;;;;7.97;4.18;;;39.30;15.00;;;;;;5062603;28;20047;-62
2021/04/28 11:08:57;;;;;;;6.53;3.80;;;39.50;15.80;;;;;;5079851;28;20028;-62
2021/04/28 11:11:35;;;;;;;7.30;4.47;;;40.00;15.60;;;;;;5058851;28;20082;-63
2021/04/28 11:14:11;;;;;;;7.63;4.45;;;39.40;15.00;;;;;;5078084;28;20536;-63
2021/04/28 11:16:38;;;;;;;9.23;4.60;;;38.10;15.30;;;;;;5077900;28;20067;-64
2021/04/28 11:19:38;;;;;;;8.70;4.50;;;37.60;15.60;;;;;;5061760;28;20064;-62
2021/04/28 11:22:17;;;;;;;8.18;4.20;;;38.60;16.10;;;;;;5031107;28;20040;-63
2021/04/28 11:25:04;;;;;;;7.50;4.30;;;39.30;15.70;;;;;;5076949;28;20029;-62
2021/04/28 11:27:43;;;;;;;7.80;4.15;;;39.80;15.70;;;;;;5080458;28;20588;-63
2021/04/28 11:30:27;;;;;;;8.07;5.20;;;39.60;15.70;;;;;;5081058;28;20036;-63
2021/04/28 11:33:17;;;;;;;7.15;4.57;;;39.80;15.60;;;;;;5060017;28;20029;-67
2021/04/28 11:35:51;;;;;;;7.80;4.40;;;39.20;15.30;;;;;;5081834;28;20033;-67
2021/04/28 11:38:19;;;;;;;9.88;4.90;;;38.70;15.70;;;;;;5069161;28;20064;-66
2021/04/28 11:40:55;;;;;;;8.65;4.72;;;38.90;15.60;;;;;;5068642;28;20580;-68
2021/04/28 11:43:26;;;;;;;8.43;4.95;;;38.50;15.70;;;;;;5070061;28;20035;-65
2021/04/28 11:45:54;;;;;;;7.50;5.07;;;38.60;16.20;;;;;;5051764;28;20037;-68
2021/04/28 11:48:24;;;;;;;8.10;5.15;;;39.70;16.40;;;;;;5070178;28;20033;-68
2021/04/28 11:50:55;;;;;;;9.10;5.35;;;39.90;15.70;;;;;;5067895;28;20098;-67
2021/04/28 11:53:22;;;;;;;8.90;5.15;;;39.90;15.60;;;;;;5066372;28;20409;-68
2021/04/28 11:55:49;;;;;;;8.55;5.82;;;39.90;15.90;;;;;;5063503;28;20407;-68
2021/04/28 11:58:30;;;;;;;12.75;6.50;;;39.70;15.50;;;;;;5068031;28;20505;-68
2021/04/28 12:01:11;;;;;;;10.18;6.45;;;39.30;15.80;;;;;;5068027;28;20551;-67
2021/04/28 12:04:00;;;;;;;12.23;7.63;;;39.20;15.70;;;;;;5050377;28;20124;-68
2021/04/28 12:06:30;;;;;;;8.25;5.50;;;38.40;15.50;;;;;;5068541;28;20047;-67
2021/04/28 12:09:25;;;;;;;8.63;5.05;;;37.60;16.10;;;;;;5050742;28;20052;-68
2021/04/28 12:12:15;;;;;;;8.80;4.90;;;36.80;16.00;;;;;;5050419;28;20129;-68
2021/04/28 12:14:47;;;;;;;17.48;9.25;;;36.10;16.30;;;;;;5050298;28;20119;-68
2021/04/28 12:17:17;;;;;;;43.83;13.70;;;35.60;16.30;;;;;;5050891;28;20036;-67
2021/04/28 12:19:48;;;;;;;8.95;5.55;;;34.60;15.80;;;;;;5068198;28;20040;-67
2021/04/28 12:22:14;;;;;;;9.05;5.43;;;33.20;16.20;;;;;;5064238;28;20033;-67
2021/04/28 12:24:45;;;;;;;9.95;5.80;;;32.40;16.40;;;;;;5067738;28;20110;-67
2021/04/28 12:27:14;;;;;;;9.18;5.40;;;32.00;16.80;;;;;;5068103;28;20037;-67
2021/04/28 12:29:46;;;;;;;9.02;5.68;;;31.90;17.00;;;;;;5067801;28;20032;-67
2021/04/28 12:32:14;;;;;;;10.88;6.78;;;31.60;17.10;;;;;;5050263;28;20113;-67
2021/04/28 12:34:41;;;;;;;19.55;8.55;;;31.20;16.80;;;;;;5050536;28;20092;-67
2021/04/28 12:37:17;;;;;;;10.95;6.68;;;30.60;16.90;;;;;;5051025;28;20032;-67
2021/04/28 12:39:55;;;;;;;11.82;6.55;;;30.40;17.40;;;;;;5050404;28;20055;-66
2021/04/28 12:42:27;;;;;;;9.93;5.93;;;30.00;17.20;;;;;;5050250;28;20044;-66
2021/04/28 12:44:53;;;;;;;9.35;6.05;;;29.40;17.60;;;;;;5071701;28;20043;-65
2021/04/28 12:47:24;;;;;;;8.98;6.10;;;29.00;17.80;;;;;;5072039;28;20040;-64
2021/04/28 12:50:11;;;;;;;13.07;6.75;;;28.70;18.30;;;;;;5053719;28;20058;-65
2021/04/28 12:52:41;;;;;;;12.27;6.95;;;28.20;17.90;;;;;;5071696;28;20114;-66
2021/04/28 12:55:30;;;;;;;12.98;7.63;;;27.60;17.80;;;;;;5037181;28;20033;-67
2021/04/28 12:58:04;;;;;;;12.70;7.25;;;26.90;18.30;;;;;;5053709;28;20040;-67
2021/04/28 13:00:33;;;;;;;12.18;6.78;;;26.80;18.80;;;;;;5072375;28;20028;-66
2021/04/28 13:03:08;;;;;;;8.32;5.78;;;27.00;19.00;;;;;;5052960;28;20044;-67
2021/04/28 13:05:37;;;;;;;12.48;6.85;;;26.90;18.70;;;;;;5071823;28;20131;-67
2021/04/28 13:08:20;;;;;;;9.15;6.10;;;26.70;18.50;;;;;;5070475;28;20040;-66
2021/04/28 13:11:01;;;;;;;8.65;6.05;;;26.60;18.90;;;;;;5072732;28;20024;-67
2021/04/28 13:13:28;;;;;;;23.90;10.30;;;26.60;19.00;;;;;;5054376;28;20132;-70